createdAt,value
2019-06-10T08:34:22.437Z,39.6
2019-06-10T08:39:59.520Z,39.4
2019-06-10T08:42:54.758Z,39.7
2019-06-10T08:48:29.750Z,38.9
2019-06-10T08:54:08.113Z,40
2019-06-10T08:59:49.392Z,39.6
2019-06-10T09:05:32.669Z,40.1
2019-06-10T09:11:13.376Z,41
2019-06-10T09:16:54.668Z,41.3
2019-06-10T09:22:33.140Z,40.8
2019-06-10T09:28:13.043Z,42.4
2019-06-10T09:33:57.248Z,42.2
2019-06-10T09:39:36.108Z,42.3
2019-06-10T09:45:15.033Z,42.5
2019-06-10T09:50:59.266Z,41.9
2019-06-10T09:56:48.771Z,41.7
2019-06-10T10:02:33.428Z,41.9
2019-06-10T10:08:12.987Z,41.4
2019-06-10T10:13:54.896Z,42
2019-06-10T10:19:33.481Z,41.5
2019-06-10T10:25:49.912Z,41.1
2019-06-10T10:31:36.057Z,41.3
2019-06-10T10:37:14.507Z,41.6
2019-06-10T10:43:23.215Z,41.4
2019-06-10T10:49:17.219Z,41.4
2019-06-10T10:54:55.857Z,40.8
2019-06-10T11:00:52.347Z,42
2019-06-10T11:06:36.876Z,41.8
2019-06-10T11:12:15.809Z,42.2
2019-06-10T11:17:58.478Z,40.8
2019-06-10T11:23:36.916Z,40.8
2019-06-10T11:29:17.666Z,40.9
2019-06-10T11:34:58.582Z,40.8
2019-06-10T11:40:37.619Z,40.8
2019-06-10T11:46:16.365Z,41.2
2019-06-10T11:51:59.545Z,40.9
2019-06-10T11:57:38.247Z,41
2019-06-10T12:03:16.869Z,41.6
2019-06-10T12:09:02.884Z,41.4
2019-06-10T12:14:43.366Z,41.4
2019-06-10T12:20:23.151Z,41.5
2019-06-10T12:26:06.977Z,41.6
2019-06-10T12:31:45.503Z,42
2019-06-10T12:37:27.298Z,41.7
2019-06-10T12:43:07.592Z,41.6
2019-06-10T12:48:46.537Z,42.5
2019-06-10T12:54:25.300Z,42.4
2019-06-10T13:00:23.089Z,42.1
2019-06-10T13:06:09.869Z,43.2
2019-06-10T13:11:53.522Z,42.6
2019-06-10T13:17:31.851Z,42.1
2019-06-10T13:23:30.697Z,42.6
2019-06-10T13:29:17.886Z,42.5
2019-06-10T13:34:57.033Z,42.5
2019-06-10T13:40:37.004Z,42.2
2019-06-10T13:46:15.416Z,41.6
2019-06-10T13:51:53.708Z,41.9
2019-06-10T13:58:14.930Z,41.5
2019-06-10T14:03:54.184Z,40.7
2019-06-10T14:09:33.228Z,40.8
2019-06-10T14:15:17.307Z,41.3
2019-06-10T14:20:56.150Z,41.2
2019-06-10T14:26:45.399Z,40.9
2019-06-10T14:32:24.664Z,41.5
2019-06-10T14:38:06.374Z,41.6
2019-06-10T14:43:46.840Z,41.3
2019-06-10T14:49:25.500Z,42.5
2019-06-10T14:55:05.482Z,41.5
2019-06-10T15:00:48.716Z,41.5
2019-06-10T15:06:34.207Z,41.1
2019-06-10T15:12:17.425Z,40.1
2019-06-10T15:17:56.461Z,39.9
2019-06-10T15:23:34.804Z,41.7
2019-06-10T15:29:17.435Z,40.5
2019-06-10T15:34:58.974Z,40.2
2019-06-10T15:40:37.555Z,39.7
2019-06-10T15:46:19.494Z,40.5
2019-06-10T15:51:59.679Z,40.1
2019-06-10T15:57:46.187Z,40.1
2019-06-10T16:03:26.149Z,39.9
2019-06-10T16:09:04.577Z,40.5
2019-06-10T16:14:43.231Z,40.5
2019-06-10T16:20:23.447Z,40.7
2019-06-10T16:26:02.955Z,40.7
2019-06-10T16:31:42.813Z,41
2019-06-10T16:37:25.692Z,41.6
2019-06-10T16:43:11.261Z,41.7
2019-06-10T16:48:52.990Z,42.5
2019-06-10T16:55:12.580Z,42.4
2019-06-10T17:00:51.726Z,43
2019-06-10T17:06:32.929Z,42.6
2019-06-10T17:12:15.171Z,43.2
2019-06-10T17:17:58.418Z,43.4
2019-06-10T17:23:37.023Z,43.3
2019-06-10T17:29:15.648Z,43.4
2019-06-10T17:34:54.326Z,43.6
2019-06-10T17:40:34.070Z,43.1
2019-06-10T17:46:12.776Z,43.5
2019-06-10T17:51:52.778Z,43.1
2019-06-10T17:57:36.296Z,43.8
2019-06-10T18:03:14.956Z,43.7
2019-06-10T18:08:53.595Z,43.2
2019-06-10T18:14:36.525Z,43.4
2019-06-10T18:20:15.106Z,43.7
2019-06-10T18:25:57.060Z,43.6
2019-06-10T18:31:37.249Z,43.6
2019-06-10T18:37:15.708Z,43.9
2019-06-10T18:42:54.219Z,43.8
2019-06-10T18:48:38.136Z,44.2
2019-06-10T18:54:22.764Z,43.7
2019-06-10T19:00:11.804Z,43.6
2019-06-10T19:05:53.843Z,44.5
2019-06-10T19:11:36.833Z,44.2
2019-06-10T19:17:23.408Z,44.1
2019-06-10T19:23:02.758Z,44.6
2019-06-10T19:28:45.518Z,44
2019-06-10T19:34:24.596Z,44.5
2019-06-10T19:40:03.132Z,44.6
2019-06-10T19:45:42.825Z,44.5
2019-06-10T19:51:34.299Z,44.8
2019-06-10T19:57:25.723Z,44.6
2019-06-10T20:03:04.075Z,44.9
2019-06-10T20:08:46.254Z,44.7
2019-06-10T20:14:24.929Z,44.7
2019-06-10T20:20:03.578Z,45
2019-06-10T20:25:46.927Z,45.4
2019-06-10T20:31:27.320Z,45.2
2019-06-10T20:37:05.754Z,45.4
2019-06-10T20:42:44.616Z,44.9
2019-06-10T20:48:24.884Z,45.5
2019-06-10T20:54:03.205Z,45.2
2019-06-10T20:59:46.816Z,45.4
2019-06-10T21:05:28.605Z,45.8
2019-06-10T21:11:09.896Z,45.7
2019-06-10T21:16:53.748Z,45.2
2019-06-10T21:22:32.780Z,45.2
2019-06-10T21:28:13.256Z,45.2
